SDFO2: Deep Fork River at Stroud

Data processed at Sun Dec 16 2018 23:32


All information presented herein is the property of the government of the United States of America and may be revised or deleted at any time without prior notice.
Dissemination of this information without the expressed written consent of the Public Affairs Office, Tulsa District U.S. Army Corps of Engineers is strictly prohibited.
These data are gathered electronically and, as presented, have not undergone any form of quality control. These data are not guaranteed to be valid or correct.
Go to home page.
Go to station list.
Go to home page.

Upstream stations:

Downstream station:
Previous Day
Next Day
Current Day
    
SHEF ID:       SDFO2     Deep Fork River at Stroud
STATION TYPE:  

               PRECIP     STAGE  RIV-FLOW   VOLTAGE  BAT-LOAD
                   in        ft       cfs      volt      volt
              Ccp-Rev   Ccp-Rev   Ccp-Rev   Ccp-Rev   Ccp-Rev
(US/Central)
12/16 00:00      0.00     11.67       458     12.73     12.65
12/16 01:00      0.00     11.64       449     12.73     12.57
12/16 02:00      0.00     11.60       438     12.73     12.57
12/16 03:00      0.00     11.58       432     12.65     12.57
12/16 04:00      0.00     11.53       418     12.65     12.57
12/16 05:00      0.00     11.50       409     12.65     12.57
12/16 06:00      0.00     11.49       407     12.65     12.57
12/16 07:00      0.00     11.45       395     12.65     12.57
12/16 08:00      0.00     11.42       387     12.65     12.57
12/16 09:00      0.00     11.41       384     12.73     12.57
12/16 10:00      0.00     11.39       378     12.81     12.65
12/16 11:00      0.00     11.36       370     12.97     12.73
12/16 12:00      0.00     11.34       364     14.08     13.37
12/16 13:00      0.00     11.32       358     13.44     13.37
12/16 14:00      0.00     11.30       353     13.68     13.29
12/16 15:00      0.00     11.27       344     13.60     13.29
12/16 16:00      0.00     11.24       335     13.53     13.29
12/16 17:00      0.00     11.23       333     13.05     12.97
12/16 18:00      0.00     11.22       330     12.89     12.81
12/16 19:00      0.00     11.20       324     12.81     12.73
12/16 20:00      0.00     11.18       318     12.81     12.65
12/16 21:00      0.00     11.16       313     12.73     12.65
12/16 22:00      0.00     11.15       310     12.73     12.65
12/16 23:00      ----      ----      ----      ----      ----